Time;durP1;ratioP1;P1;durP2;ratioP2;P2;SDS_P1;SDS_P2;PMS_P1;PMS_P2;Temp;Humidity;BMP_temperature;BMP_pressure;BME280_temperature;BME280_humidity;BME280_pressure;Samples;Min_cycle;Max_cycle;Signal;HPM_P1;HPM_P2
2022/11/18 00:03:46;;;;;;;9.70;6.70;;;;;;;4.14;64.73;97726.58;226674;1251;138390;-65
2022/11/18 00:08:51;;;;;;;11.40;6.70;;;;;;;4.12;64.58;97729.12;226481;1249;139318;-66
2022/11/18 00:19:15;;;;;;;10.80;6.80;;;;;;;4.01;65.06;97729.55;226664;1245;138472;-64
2022/11/18 00:24:19;;;;;;;12.20;7.10;;;;;;;3.97;65.07;97722.95;226584;1228;138810;-64
2022/11/18 00:29:25;;;;;;;10.30;7.10;;;;;;;3.98;64.93;97714.68;226703;1240;139111;-64
2022/11/18 00:34:28;;;;;;;10.70;7.40;;;;;;;3.98;65.18;97715.35;226523;1252;138942;-64
2022/11/18 00:39:31;;;;;;;11.20;6.70;;;;;;;3.98;65.17;97720.47;226590;1252;138459;-65
2022/11/18 00:44:35;;;;;;;10.20;6.80;;;;;;;3.98;65.03;97725.36;226472;1238;138118;-67
2022/11/18 00:49:38;;;;;;;11.50;7.50;;;;;;;3.96;65.39;97718.30;226510;1252;139470;-64
2022/11/18 00:54:41;;;;;;;10.90;7.50;;;;;;;3.94;65.24;97721.20;227746;1236;138331;-64
2022/11/18 00:59:44;;;;;;;10.90;6.90;;;;;;;3.94;65.26;97728.23;226570;1237;138210;-63
2022/11/18 01:04:47;;;;;;;11.70;7.70;;;;;;;3.91;65.36;97731.73;226945;1252;139292;-64
2022/11/18 01:09:50;;;;;;;9.40;6.90;;;;;;;3.93;65.77;97724.09;227586;1232;138991;-64
2022/11/18 01:14:53;;;;;;;10.90;7.20;;;;;;;3.99;65.57;97718.12;226765;1255;138897;-65
2022/11/18 01:19:56;;;;;;;12.10;7.30;;;;;;;4.07;65.29;97715.20;226720;1245;139197;-64
2022/11/18 01:24:59;;;;;;;11.30;6.70;;;;;;;4.10;64.97;97712.56;226525;1239;138229;-65
2022/11/18 01:30:03;;;;;;;11.40;7.00;;;;;;;4.10;64.52;97710.98;227549;1233;139292;-67
2022/11/18 01:35:06;;;;;;;10.40;7.20;;;;;;;4.06;64.44;97702.12;226666;1256;138531;-65
2022/11/18 01:40:10;;;;;;;12.60;7.00;;;;;;;3.99;64.55;97696.88;226655;1238;138101;-64
2022/11/18 01:45:27;;;;;;;11.70;7.00;;;;;;;3.97;64.66;97702.46;226759;1238;138180;-63
2022/11/18 01:50:32;;;;;;;12.20;7.10;;;;;;;3.95;64.48;97707.45;226558;1244;138344;-64
2022/11/18 01:55:40;;;;;;;10.70;7.10;;;;;;;3.92;64.84;97709.21;226812;1237;138316;-63
2022/11/18 02:00:43;;;;;;;11.10;7.50;;;;;;;3.90;64.81;97695.27;226633;1241;138411;-66
2022/11/18 02:05:48;;;;;;;12.20;7.70;;;;;;;3.90;64.87;97682.48;227778;1239;139019;-68
2022/11/18 02:10:51;;;;;;;12.20;8.40;;;;;;;3.88;64.34;97686.95;226680;1242;138174;-64
2022/11/18 02:16:15;;;;;;;12.30;7.80;;;;;;;3.86;64.65;97681.33;227007;1234;138078;-64
2022/11/18 02:21:51;;;;;;;11.20;8.40;;;;;;;3.86;64.64;97675.02;226867;1236;138371;-63
2022/11/18 02:27:00;;;;;;;;;;;;;;;3.87;64.74;97670.90;226823;1255;139463;-64
2022/11/18 02:32:12;;;;;;;11.90;8.50;;;;;;;3.86;64.84;97670.97;227818;1234;124922;-63
2022/11/18 02:37:32;;;;;;;12.40;8.40;;;;;;;3.85;64.72;97661.89;226902;1254;139134;-62
2022/11/18 02:42:36;;;;;;;11.90;9.00;;;;;;;3.83;64.61;97660.98;226604;1251;138759;-66
2022/11/18 02:47:43;;;;;;;14.20;9.30;;;;;;;3.80;65.01;97652.02;227847;1248;138218;-65
2022/11/18 02:52:51;;;;;;;12.80;8.80;;;;;;;3.79;65.19;97655.05;226961;1239;138392;-66
2022/11/18 02:57:56;;;;;;;12.10;8.80;;;;;;;3.76;65.31;97653.30;226554;1245;139440;-65
2022/11/18 03:02:59;;;;;;;13.20;8.10;;;;;;;3.74;65.71;97657.58;226616;1237;138637;-68
2022/11/18 03:08:12;;;;;;;15.10;9.20;;;;;;;3.76;66.01;97669.04;226567;1253;138990;-66
2022/11/18 03:13:33;;;;;;;13.00;9.10;;;;;;;3.76;65.78;97668.02;227813;1231;138370;-65
2022/11/18 03:18:56;;;;;;;13.20;9.50;;;;;;;3.75;66.17;97666.67;227030;1242;138121;-71
2022/11/18 03:24:12;;;;;;;13.50;9.70;;;;;;;3.75;66.19;97656.98;227115;1244;138394;-71
2022/11/18 03:29:20;;;;;;;14.60;9.50;;;;;;;3.72;66.53;97652.07;226814;1248;138521;-68
2022/11/18 03:34:33;;;;;;;13.00;9.00;;;;;;;3.70;66.60;97643.78;226906;1245;138263;-68
2022/11/18 03:39:41;;;;;;;11.50;8.90;;;;;;;3.66;67.06;97645.29;227842;1236;138110;-67
2022/11/18 03:44:52;;;;;;;12.30;8.70;;;;;;;3.63;67.07;97649.64;226307;1240;138198;-69
2022/11/18 03:50:03;;;;;;;13.80;9.30;;;;;;;3.63;67.09;97653.52;226539;1233;139247;-68
2022/11/18 03:55:13;;;;;;;13.20;8.80;;;;;;;3.58;67.07;97656.73;226279;1252;138293;-68
2022/11/18 04:00:19;;;;;;;35.20;25.00;;;;;;;3.58;68.19;97640.27;226466;1237;138310;-67
2022/11/18 04:05:25;;;;;;;12.60;9.40;;;;;;;3.63;68.09;97628.08;226933;1244;139307;-66
2022/11/18 04:10:34;;;;;;;12.30;8.40;;;;;;;3.62;67.79;97621.81;226416;1255;138908;-65
2022/11/18 04:15:39;;;;;;;168.20;106.50;;;;;;;3.68;68.27;97623.41;226323;1240;141308;-66
2022/11/18 04:20:42;;;;;;;12.30;9.20;;;;;;;3.79;68.17;97619.06;226826;1238;139819;-68
2022/11/18 04:25:45;;;;;;;12.00;9.10;;;;;;;3.81;67.60;97619.34;226624;1255;138560;-64
2022/11/18 04:30:49;;;;;;;12.30;8.80;;;;;;;3.75;67.68;97618.08;227741;1233;138205;-64
2022/11/18 04:35:52;;;;;;;13.10;8.60;;;;;;;3.69;67.87;97616.14;226303;1238;138720;-63
2022/11/18 04:40:55;;;;;;;11.70;8.60;;;;;;;3.68;67.92;97615.84;226396;1253;137992;-69
2022/11/18 04:45:58;;;;;;;149.40;93.40;;;;;;;3.66;68.23;97615.78;226494;1244;232319;-68
2022/11/18 04:51:05;;;;;;;19.90;12.90;;;;;;;3.73;68.92;97625.55;227875;1236;138698;-73
2022/11/18 04:56:08;;;;;;;11.80;8.90;;;;;;;3.70;67.83;97620.30;226784;1238;139258;-69
2022/11/18 05:01:11;;;;;;;11.90;8.20;;;;;;;3.61;67.81;97608.35;226509;1237;139553;-68
2022/11/18 05:06:15;;;;;;;11.20;9.10;;;;;;;3.56;67.97;97616.36;226415;1240;138207;-69
2022/11/18 05:16:39;;;;;;;11.10;8.10;;;;;;;3.63;69.14;97622.61;226389;1243;138471;-68
2022/11/18 05:21:42;;;;;;;12.60;9.10;;;;;;;3.77;67.71;97628.48;226477;1245;138316;-70
2022/11/18 05:26:46;;;;;;;13.10;9.50;;;;;;;3.78;67.68;97636.70;226880;1249;138369;-68
2022/11/18 05:31:49;;;;;;;13.60;9.60;;;;;;;3.78;67.67;97639.11;226403;1249;138336;-68
2022/11/18 05:36:52;;;;;;;12.10;9.20;;;;;;;3.75;67.49;97647.88;226471;1228;138303;-69
2022/11/18 05:47:18;;;;;;;13.20;9.70;;;;;;;3.68;67.61;97644.64;227702;1230;138834;-70
2022/11/18 05:52:21;;;;;;;14.20;9.70;;;;;;;3.67;67.97;97644.34;227885;1242;138603;-63
2022/11/18 05:57:24;;;;;;;16.60;11.20;;;;;;;3.64;68.12;97648.02;226938;1241;138333;-62
2022/11/18 06:02:29;;;;;;;15.80;11.00;;;;;;;3.61;67.96;97650.23;227846;1234;138438;-63
2022/11/18 06:07:45;;;;;;;16.60;10.40;;;;;;;3.62;68.39;97646.90;226958;1250;138616;-64
2022/11/18 06:12:51;;;;;;;;;;;;;;;3.60;68.15;97646.64;226743;1241;138394;-64
2022/11/18 06:18:02;;;;;;;17.50;10.60;;;;;;;3.55;68.30;97658.15;226506;1244;125849;-63
2022/11/18 06:23:05;;;;;;;18.00;11.70;;;;;;;3.48;68.53;97664.86;226316;1234;138488;-62
2022/11/18 06:28:10;;;;;;;16.90;11.00;;;;;;;3.50;68.44;97673.81;226523;1243;139097;-62
2022/11/18 06:33:14;;;;;;;15.50;10.70;;;;;;;3.58;68.53;97674.14;227850;1226;138965;-63
2022/11/18 06:38:17;;;;;;;17.70;11.90;;;;;;;3.64;68.35;97688.52;227000;1249;138660;-65
2022/11/18 06:43:37;;;;;;;17.70;11.80;;;;;;;3.66;68.13;97686.10;226625;1236;138336;-64
2022/11/18 06:48:41;;;;;;;16.50;10.80;;;;;;;3.63;68.16;97686.80;226716;1235;138330;-62
2022/11/18 06:53:44;;;;;;;15.80;11.30;;;;;;;3.64;68.31;97689.77;226457;1236;138395;-64
2022/11/18 06:58:52;;;;;;;15.30;9.80;;;;;;;3.61;68.07;97699.36;226471;1236;138858;-63
2022/11/18 07:03:58;;;;;;;15.70;10.10;;;;;;;3.56;68.10;97698.90;226613;1249;138376;-63
2022/11/18 07:09:04;;;;;;;15.20;10.50;;;;;;;3.55;68.38;97708.65;227637;1228;139005;-62
2022/11/18 07:14:08;;;;;;;15.00;9.40;;;;;;;3.53;68.43;97711.03;226578;1250;138435;-64
2022/11/18 07:19:12;;;;;;;15.50;10.90;;;;;;;3.49;68.44;97722.11;227810;1236;138680;-67
2022/11/18 07:24:15;;;;;;;15.30;9.50;;;;;;;3.45;68.70;97709.67;226529;1236;139465;-66
2022/11/18 07:29:19;;;;;;;12.70;8.60;;;;;;;3.48;68.77;97703.40;226525;1249;139188;-65
2022/11/18 07:34:22;;;;;;;14.50;9.90;;;;;;;3.56;68.82;97704.18;226764;1249;139487;-65
2022/11/18 07:39:25;;;;;;;17.90;10.30;;;;;;;3.63;68.53;97706.48;226671;1250;137922;-65
2022/11/18 07:44:28;;;;;;;17.10;9.80;;;;;;;3.65;68.17;97702.86;226604;1237;138935;-65
2022/11/18 07:49:31;;;;;;;14.80;9.10;;;;;;;3.64;68.01;97695.71;226788;1245;138200;-66
2022/11/18 07:54:34;;;;;;;14.70;9.10;;;;;;;3.61;68.18;97689.94;226798;1229;138685;-66
2022/11/18 07:59:37;;;;;;;14.00;8.80;;;;;;;3.59;68.20;97675.80;226725;1243;138426;-65
2022/11/18 08:04:40;;;;;;;13.30;9.50;;;;;;;3.54;68.12;97678.85;227644;1242;139347;-68
2022/11/18 08:09:43;;;;;;;14.50;9.60;;;;;;;3.49;68.18;97683.91;227693;1232;138666;-68
2022/11/18 08:14:46;;;;;;;16.00;9.00;;;;;;;3.45;67.93;97690.79;226681;1243;138742;-64
2022/11/18 08:19:49;;;;;;;15.10;9.50;;;;;;;3.43;68.28;97695.83;226506;1250;138657;-64
2022/11/18 08:24:52;;;;;;;14.50;9.50;;;;;;;3.42;68.11;97699.20;226732;1230;138109;-66
2022/11/18 08:29:55;;;;;;;13.70;8.50;;;;;;;3.41;68.13;97696.64;226660;1226;138963;-66
2022/11/18 08:34:58;;;;;;;13.10;8.50;;;;;;;3.43;68.25;97700.54;226912;1249;138594;-65
2022/11/18 08:40:01;;;;;;;14.10;9.30;;;;;;;3.53;68.12;97700.16;227864;1226;138770;-66
2022/11/18 08:45:07;;;;;;;13.30;9.60;;;;;;;3.62;67.80;97704.91;226840;1249;139335;-67
2022/11/18 08:50:11;;;;;;;14.40;10.00;;;;;;;3.68;67.75;97705.27;226598;1250;139206;-70
2022/11/18 08:55:14;;;;;;;14.30;9.50;;;;;;;3.68;67.74;97718.60;227603;1242;138271;-71
2022/11/18 09:00:18;;;;;;;12.40;8.50;;;;;;;3.68;67.63;97716.02;226906;1249;138785;-69
2022/11/18 09:05:21;;;;;;;15.20;9.30;;;;;;;3.61;67.24;97711.29;226793;1241;139392;-69
2022/11/18 09:10:24;;;;;;;11.50;9.00;;;;;;;3.59;67.34;97722.80;226530;1249;138437;-70
2022/11/18 09:15:28;;;;;;;12.50;9.20;;;;;;;3.57;67.68;97732.88;226541;1250;139110;-69
2022/11/18 09:20:31;;;;;;;14.10;9.30;;;;;;;3.55;67.02;97716.20;226670;1229;138576;-65
2022/11/18 09:25:34;;;;;;;15.10;8.80;;;;;;;3.51;67.11;97716.24;227805;1228;138081;-67
2022/11/18 09:30:37;;;;;;;13.50;8.80;;;;;;;3.46;67.00;97727.17;226690;1249;138779;-68
2022/11/18 09:35:41;;;;;;;11.50;8.20;;;;;;;3.46;67.17;97733.66;227544;1243;138661;-69
2022/11/18 09:41:23;;;;;;;15.90;8.30;;;;;;;3.45;67.17;97734.08;226426;1246;139213;-64
2022/11/18 09:46:34;;;;;;;13.10;8.00;;;;;;;3.50;67.12;97733.27;226311;1250;138753;-64
2022/11/18 09:51:45;;;;;;;13.90;8.90;;;;;;;3.56;66.93;97725.58;226574;1245;139178;-64
2022/11/18 09:56:50;;;;;;;12.50;8.90;;;;;;;3.67;66.96;97728.71;226548;1242;138122;-71
2022/11/18 10:02:10;;;;;;;17.70;9.40;;;;;;;3.73;66.63;97736.23;226525;1249;138465;-71
2022/11/18 10:07:25;;;;;;;14.10;8.80;;;;;;;3.74;66.26;97725.86;227784;1231;139236;-67
2022/11/18 10:12:35;;;;;;;12.20;9.00;;;;;;;3.72;66.20;97727.52;226420;1250;138451;-64
2022/11/18 10:18:02;;;;;;;12.60;8.70;;;;;;;3.68;66.26;97732.13;226289;1237;138263;-67
2022/11/18 10:23:31;;;;;;;13.10;8.30;;;;;;;3.64;66.11;97738.66;226618;1244;138077;-67
2022/11/18 10:28:34;;;;;;;13.40;8.60;;;;;;;3.61;65.85;97741.30;226533;1249;138755;-67
2022/11/18 10:33:38;;;;;;;12.80;9.20;;;;;;;3.59;66.12;97742.61;226619;1240;138475;-64
2022/11/18 10:38:41;;;;;;;14.20;9.70;;;;;;;3.58;66.27;97735.16;227859;1230;138592;-65
2022/11/18 10:43:55;;;;;;;16.40;9.40;;;;;;;3.56;65.97;97735.58;226699;1236;138993;-63
2022/11/18 10:49:07;;;;;;;15.40;9.10;;;;;;;3.53;65.98;97740.13;226512;1243;138621;-67
2022/11/18 10:54:22;;;;;;;17.00;9.80;;;;;;;3.50;66.05;97739.73;226753;1240;138627;-64
2022/11/18 10:59:38;;;;;;;19.50;10.40;;;;;;;3.46;66.29;97743.65;226866;1249;138197;-64
2022/11/18 11:04:43;;;;;;;16.20;10.60;;;;;;;3.51;66.54;97744.45;226543;1242;138947;-67
2022/11/18 11:10:16;;;;;;;19.10;13.20;;;;;;;3.53;66.22;97750.65;226532;1234;138966;-65
2022/11/18 11:15:34;;;;;;;20.40;13.80;;;;;;;3.50;66.03;97749.94;226609;1240;138229;-64
2022/11/18 11:20:37;;;;;;;22.30;15.10;;;;;;;3.47;65.91;97758.68;226536;1249;138503;-65
2022/11/18 11:25:56;;;;;;;21.20;14.50;;;;;;;3.42;65.56;97762.45;227713;1242;138436;-64
2022/11/18 11:31:37;;;;;;;58.80;35.40;;;;;;;3.39;66.08;97764.02;227211;1231;138334;-64
2022/11/18 11:36:43;;;;;;;22.40;14.50;;;;;;;3.42;65.32;97762.48;227166;1244;138564;-63
2022/11/18 11:42:06;;;;;;;20.10;13.90;;;;;;;3.32;64.95;97761.45;226105;1251;139648;-64
2022/11/18 11:47:46;;;;;;;27.60;12.90;;;;;;;3.24;64.85;97752.58;227081;1224;139141;-63
2022/11/18 11:53:05;;;;;;;22.80;13.90;;;;;;;3.14;65.38;97757.13;226215;1240;139566;-65
2022/11/18 11:58:47;;;;;;;18.10;13.10;;;;;;;3.06;65.52;97753.15;226087;1251;138603;-66
2022/11/18 12:03:59;;;;;;;23.80;14.10;;;;;;;2.99;65.85;97748.80;225949;1237;138537;-67
2022/11/18 12:09:19;;;;;;;20.90;13.20;;;;;;;2.96;65.66;97743.88;226077;1244;138826;-63
2022/11/18 12:14:39;;;;;;;19.60;13.00;;;;;;;2.91;65.68;97744.86;227108;1242;138437;-63
2022/11/18 12:19:42;;;;;;;22.10;14.20;;;;;;;2.84;65.93;97752.53;225953;1238;138623;-63
2022/11/18 12:24:45;;;;;;;20.90;14.10;;;;;;;2.85;65.67;97752.33;226039;1243;138766;-66
2022/11/18 12:29:49;;;;;;;22.50;14.40;;;;;;;2.83;65.48;97762.40;226067;1237;139583;-64
2022/11/18 12:34:59;;;;;;;20.10;13.00;;;;;;;2.87;65.42;97764.52;226397;1243;139078;-63
2022/11/18 12:40:03;;;;;;;27.40;16.70;;;;;;;2.96;65.75;97767.20;227219;1243;139033;-64
2022/11/18 12:45:40;;;;;;;21.90;13.30;;;;;;;3.06;65.05;97768.24;226050;1229;138891;-63
2022/11/18 12:50:50;;;;;;;23.80;14.20;;;;;;;3.03;64.91;97768.23;224053;1235;138574;-65
2022/11/18 12:55:58;;;;;;;22.70;14.10;;;;;;;2.98;64.87;97767.29;223893;1236;139163;-66
2022/11/18 13:01:09;;;;;;;22.70;13.70;;;;;;;2.92;64.40;97774.92;224041;1233;139183;-65
2022/11/18 13:06:30;;;;;;;22.00;14.10;;;;;;;2.82;64.60;97782.80;223874;1231;139425;-64
2022/11/18 13:11:45;;;;;;;19.30;13.00;;;;;;;2.75;64.49;97783.48;224020;1235;138271;-65
2022/11/18 13:28:06;;;;;;;20.50;14.30;;;;;;;2.62;64.14;97796.42;227220;1230;139089;-67
2022/11/18 13:33:10;;;;;;;19.80;13.50;;;;;;;2.59;63.80;97814.39;226128;1251;138342;-63
2022/11/18 13:38:23;;;;;;;19.90;12.90;;;;;;;2.58;63.85;97820.74;226037;1249;138419;-67
2022/11/18 13:43:31;;;;;;;21.20;13.20;;;;;;;2.58;63.73;97808.69;227247;1233;139262;-65
2022/11/18 13:48:36;;;;;;;19.40;13.50;;;;;;;2.58;63.50;97814.11;225799;1243;138614;-62
2022/11/18 13:53:40;;;;;;;19.00;13.50;;;;;;;2.58;63.46;97812.70;227125;1244;138398;-63
2022/11/18 13:58:50;;;;;;;22.10;13.50;;;;;;;2.61;63.37;97817.30;226096;1251;139058;-65
2022/11/18 14:04:24;;;;;;;22.20;13.40;;;;;;;2.62;63.21;97825.85;227219;1234;139208;-62
2022/11/18 14:09:29;;;;;;;20.50;13.40;;;;;;;2.61;62.87;97842.52;226037;1243;138719;-61
2022/11/18 14:14:39;;;;;;;19.30;12.40;;;;;;;2.62;62.92;97838.09;226093;1237;139040;-62
2022/11/18 14:19:42;;;;;;;23.60;13.50;;;;;;;2.62;63.06;97832.68;226058;1251;139238;-62
2022/11/18 14:25:00;;;;;;;26.50;14.20;;;;;;;2.64;62.66;97834.65;226077;1245;139269;-63
2022/11/18 14:30:22;;;;;;;22.90;14.40;;;;;;;2.67;62.74;97839.80;226173;1251;139965;-63
2022/11/18 14:35:25;;;;;;;23.00;14.50;;;;;;;2.67;62.61;97847.81;226254;1251;138144;-63
2022/11/18 14:40:35;;;;;;;24.10;13.80;;;;;;;2.69;62.69;97857.20;225997;1240;137998;-65
2022/11/18 14:45:39;;;;;;;136.60;74.10;;;;;;;2.71;62.92;97860.38;225996;1241;139219;-62
2022/11/18 14:50:42;;;;;;;23.80;16.10;;;;;;;2.81;62.09;97864.09;227068;1244;138883;-62
2022/11/18 14:55:48;;;;;;;21.00;13.70;;;;;;;2.77;61.60;97874.10;226075;1239;139155;-63
2022/11/18 15:00:51;;;;;;;23.20;14.00;;;;;;;2.75;61.66;97878.06;226097;1243;138524;-64
2022/11/18 15:05:55;;;;;;;19.00;13.40;;;;;;;2.71;61.42;97877.77;226181;1251;139210;-65
2022/11/18 15:10:58;;;;;;;21.00;14.70;;;;;;;2.68;61.19;97877.53;227309;1237;138402;-63
2022/11/18 15:16:25;;;;;;;23.50;16.20;;;;;;;2.68;61.71;97889.11;227143;1236;138862;-64
2022/11/18 15:21:29;;;;;;;23.70;16.30;;;;;;;2.66;61.42;97894.11;227226;1237;138812;-62
2022/11/18 15:26:38;;;;;;;24.00;16.80;;;;;;;2.66;61.46;97900.20;226109;1251;138197;-61
2022/11/18 15:31:41;;;;;;;30.40;17.70;;;;;;;2.65;61.13;97899.41;226177;1251;138260;-64
2022/11/18 15:36:45;;;;;;;29.00;18.00;;;;;;;2.59;61.16;97897.91;226102;1243;139162;-63
2022/11/18 15:41:48;;;;;;;26.90;17.80;;;;;;;2.61;61.14;97903.45;226138;1251;138511;-63
2022/11/18 15:46:51;;;;;;;26.60;17.00;;;;;;;2.60;61.25;97903.46;226170;1251;138954;-64
2022/11/18 15:51:54;;;;;;;26.70;17.10;;;;;;;2.60;61.06;97909.42;227213;1244;138453;-63
2022/11/18 15:56:57;;;;;;;27.30;16.60;;;;;;;2.60;61.04;97912.73;226102;1244;138292;-62
2022/11/18 16:02:00;;;;;;;25.50;15.70;;;;;;;2.64;60.81;97913.11;226098;1251;138691;-64
2022/11/18 16:07:04;;;;;;;21.80;14.80;;;;;;;2.62;60.18;97917.56;226012;1242;139269;-62
2022/11/18 16:17:29;;;;;;;22.40;14.50;;;;;;;2.53;59.78;97935.52;226161;1250;139283;-62
2022/11/18 16:22:32;;;;;;;22.00;14.70;;;;;;;2.49;60.27;97942.17;226197;1240;139120;-63
2022/11/18 16:27:37;;;;;;;20.10;14.20;;;;;;;2.49;60.08;97940.60;225989;1241;138484;-62
2022/11/18 16:32:40;;;;;;;;;;;;;;;2.49;59.63;97939.19;227009;1245;138639;-62
2022/11/18 16:37:43;;;;;;;20.50;13.70;;;;;;;2.50;59.61;97943.34;226153;1249;125036;-63
2022/11/18 16:42:50;;;;;;;23.40;14.40;;;;;;;2.49;59.69;97948.27;226163;1251;138752;-63
2022/11/18 16:47:53;;;;;;;19.30;13.20;;;;;;;2.51;59.49;97950.99;227236;1244;138653;-61
2022/11/18 16:52:57;;;;;;;21.40;14.10;;;;;;;2.50;59.32;97955.59;226250;1251;139808;-64
2022/11/18 16:58:00;;;;;;;21.80;13.40;;;;;;;2.51;59.35;97965.20;226068;1244;138800;-62
2022/11/18 17:03:03;;;;;;;19.20;13.10;;;;;;;2.50;59.29;97961.73;227636;1212;138211;-63
2022/11/18 17:08:06;;;;;;;21.00;14.00;;;;;;;2.50;59.44;97962.97;227684;1206;138330;-62
2022/11/18 17:13:09;;;;;;;144.50;92.30;;;;;;;2.53;59.23;97956.34;226286;1235;139114;-62
2022/11/18 17:18:12;;;;;;;28.70;19.70;;;;;;;2.63;60.38;97959.00;226870;1243;139579;-63
2022/11/18 17:23:15;;;;;;;24.40;15.50;;;;;;;2.65;59.23;97972.95;226903;1214;139319;-64
2022/11/18 17:28:18;;;;;;;21.50;14.30;;;;;;;2.60;59.04;97972.27;226517;1236;139104;-61
2022/11/18 17:33:22;;;;;;;21.00;13.60;;;;;;;2.59;58.79;97980.76;226557;1249;138606;-62
2022/11/18 17:38:25;;;;;;;22.20;14.40;;;;;;;2.57;58.78;97974.01;226584;1239;138638;-61
2022/11/18 17:43:28;;;;;;;23.00;14.90;;;;;;;2.53;58.92;97978.90;226642;1240;139114;-61
2022/11/18 17:48:31;;;;;;;22.20;14.00;;;;;;;2.51;58.75;97990.58;227218;1234;139003;-61
2022/11/18 17:53:34;;;;;;;22.30;15.10;;;;;;;2.50;59.00;97990.58;226570;1234;138629;-62
2022/11/18 17:58:43;;;;;;;20.20;14.20;;;;;;;2.51;58.84;97998.77;227557;1231;138778;-62
2022/11/18 18:03:47;;;;;;;46.40;27.70;;;;;;;2.55;59.82;97998.58;226538;1249;138406;-61
2022/11/18 18:08:55;;;;;;;23.40;14.50;;;;;;;2.60;58.67;97996.44;226740;1238;138460;-61
2022/11/18 18:14:13;;;;;;;20.60;13.40;;;;;;;2.53;58.53;97993.44;226812;1242;138581;-62
2022/11/18 18:19:19;;;;;;;18.30;12.90;;;;;;;2.50;57.99;97992.55;226885;1249;138583;-60
2022/11/18 18:24:23;;;;;;;19.40;11.90;;;;;;;2.47;57.70;98001.61;226697;1234;140037;-61
2022/11/18 18:29:26;;;;;;;20.60;13.10;;;;;;;2.46;57.73;98005.88;226756;1235;138825;-61
2022/11/18 18:34:29;;;;;;;18.90;12.10;;;;;;;2.44;57.81;98019.44;226677;1249;138552;-60
2022/11/18 18:39:32;;;;;;;20.10;12.50;;;;;;;2.44;57.54;98025.56;227487;1232;138854;-62
2022/11/18 18:49:57;;;;;;;25.70;16.60;;;;;;;2.55;58.03;98027.82;227431;1239;138921;-61
2022/11/18 18:55:00;;;;;;;20.50;12.60;;;;;;;2.54;57.14;98029.83;226692;1241;138884;-61
2022/11/18 19:00:04;;;;;;;19.20;12.20;;;;;;;2.51;57.40;98033.29;227705;1230;139153;-62
2022/11/18 19:05:08;;;;;;;21.50;12.30;;;;;;;2.48;57.26;98039.38;226880;1249;138391;-60
2022/11/18 19:10:12;;;;;;;16.40;11.00;;;;;;;2.45;57.57;98051.60;227511;1227;139278;-61
2022/11/18 19:15:15;;;;;;;19.60;12.30;;;;;;;2.45;57.45;98053.54;226611;1249;138997;-61
2022/11/18 19:20:35;;;;;;;15.50;11.50;;;;;;;2.42;57.57;98056.77;226805;1239;138576;-61
2022/11/18 19:25:38;;;;;;;19.70;12.30;;;;;;;2.37;57.62;98055.08;226660;1226;138051;-62
2022/11/18 19:30:41;;;;;;;19.30;11.90;;;;;;;2.35;57.52;98053.59;226687;1235;138748;-62
2022/11/18 19:35:44;;;;;;;18.70;12.00;;;;;;;2.34;58.00;98058.55;226430;1237;137916;-63
2022/11/18 19:40:47;;;;;;;17.30;12.30;;;;;;;2.34;57.77;98059.07;227524;1242;138383;-62
2022/11/18 19:45:51;;;;;;;17.80;12.00;;;;;;;2.34;57.69;98066.80;226684;1234;139163;-62
2022/11/18 19:51:05;;;;;;;20.70;13.10;;;;;;;2.32;57.95;98063.36;226685;1249;139167;-62
2022/11/18 19:56:10;;;;;;;19.90;12.80;;;;;;;2.33;58.04;98060.55;226560;1249;138624;-64
2022/11/18 20:01:16;;;;;;;20.30;12.30;;;;;;;2.31;58.19;98064.30;226731;1237;139653;-64
2022/11/18 20:06:21;;;;;;;18.90;12.50;;;;;;;2.32;57.80;98067.57;226493;1249;139637;-61
2022/11/18 20:11:24;;;;;;;19.50;12.10;;;;;;;2.33;57.88;98074.52;226661;1241;137830;-63
2022/11/18 20:16:27;;;;;;;19.80;11.50;;;;;;;2.31;58.02;98069.89;226659;1234;139078;-63
2022/11/18 20:21:31;;;;;;;44.40;25.70;;;;;;;2.40;59.12;98071.08;226425;1234;139118;-62
2022/11/18 20:26:37;;;;;;;313.70;164.70;;;;;;;2.46;58.02;98072.90;226597;1235;138673;-62
2022/11/18 20:31:40;;;;;;;31.10;18.60;;;;;;;2.48;58.02;98068.76;227579;1230;138972;-60
2022/11/18 20:36:45;;;;;;;19.00;11.90;;;;;;;2.47;57.33;98077.60;226606;1249;139115;-63
2022/11/18 20:43:10;;;;;;;18.20;11.40;;;;;;;2.41;57.29;98076.27;226768;1249;138504;-63
2022/11/18 20:47:11;;;;;;;200.50;114.60;;;;;;;2.37;57.78;98080.48;227425;1235;138866;-64
2022/11/18 20:52:14;;;;;;;21.30;14.30;;;;;;;2.46;57.35;98084.99;226098;1248;138721;-63
2022/11/18 20:57:17;;;;;;;16.00;11.00;;;;;;;2.43;56.33;98091.42;226487;1249;139087;-66
2022/11/18 21:02:20;;;;;;;16.30;8.90;;;;;;;2.35;54.99;98088.79;226496;1250;138254;-61
2022/11/18 21:07:23;;;;;;;13.20;8.60;;;;;;;2.30;54.16;98099.14;226520;1235;139832;-64
2022/11/18 21:12:27;;;;;;;14.80;9.60;;;;;;;2.28;54.32;98114.29;226576;1242;138900;-62
2022/11/18 21:17:30;;;;;;;232.20;124.80;;;;;;;2.30;54.82;98117.72;226905;1240;139164;-61
2022/11/18 21:22:33;;;;;;;25.30;17.00;;;;;;;2.41;56.21;98126.71;226458;1245;138817;-63
2022/11/18 21:27:36;;;;;;;16.00;10.70;;;;;;;2.41;55.54;98135.08;227577;1234;138609;-61
2022/11/18 21:32:39;;;;;;;18.10;9.60;;;;;;;2.38;55.64;98121.40;227618;1242;138768;-64
2022/11/18 21:37:42;;;;;;;14.90;9.20;;;;;;;2.34;55.90;98123.46;226756;1234;139040;-64
2022/11/18 21:42:45;;;;;;;15.30;9.30;;;;;;;2.32;56.28;98138.96;226706;1249;138096;-63
2022/11/18 21:47:47;;;;;;;15.80;9.90;;;;;;;2.29;56.71;98134.75;226609;1249;138964;-64
2022/11/18 21:52:51;;;;;;;17.10;10.50;;;;;;;2.25;56.62;98138.08;226726;1237;138746;-64
2022/11/18 21:57:53;;;;;;;17.10;10.30;;;;;;;2.24;56.79;98145.96;226644;1249;138965;-65
2022/11/18 22:03:03;;;;;;;20.10;11.00;;;;;;;2.23;57.31;98143.05;226756;1249;138668;-66
2022/11/18 22:08:09;;;;;;;17.50;11.00;;;;;;;2.22;57.47;98144.66;227547;1240;138743;-63
2022/11/18 22:13:12;;;;;;;20.40;11.60;;;;;;;2.21;57.68;98151.52;226423;1244;139023;-64
2022/11/18 22:18:15;;;;;;;20.00;11.20;;;;;;;2.18;57.88;98156.73;226594;1249;139376;-64
2022/11/18 22:23:20;;;;;;;21.70;11.30;;;;;;;2.18;58.17;98169.71;226644;1244;138716;-62
2022/11/18 22:28:24;;;;;;;19.40;10.50;;;;;;;2.14;58.52;98173.35;226719;1250;138797;-63
2022/11/18 22:33:26;;;;;;;16.20;10.10;;;;;;;2.14;58.53;98169.50;226570;1236;138763;-64
2022/11/18 22:38:30;;;;;;;16.50;10.10;;;;;;;2.16;58.32;98169.08;226702;1238;138026;-64
2022/11/18 22:43:34;;;;;;;17.80;10.80;;;;;;;2.17;58.19;98183.20;226743;1240;139702;-65
2022/11/18 22:48:37;;;;;;;19.20;10.70;;;;;;;2.15;58.57;98193.42;226632;1249;138970;-64
2022/11/18 22:53:40;;;;;;;15.30;10.30;;;;;;;2.15;58.91;98188.70;226637;1250;139483;-65
2022/11/18 22:58:43;;;;;;;14.90;9.80;;;;;;;2.16;58.55;98183.23;226891;1241;139372;-66
2022/11/18 23:03:47;;;;;;;15.70;10.30;;;;;;;2.17;58.38;98184.05;226893;1248;138477;-63
2022/11/18 23:08:50;;;;;;;17.80;10.30;;;;;;;2.20;58.41;98187.59;226735;1237;139978;-62
2022/11/18 23:14:02;;;;;;;17.60;10.40;;;;;;;2.18;58.70;98193.30;226760;1242;139038;-61
2022/11/18 23:19:08;;;;;;;17.20;10.10;;;;;;;2.15;58.63;98197.27;226829;1241;160709;-61
2022/11/18 23:24:16;;;;;;;13.60;9.80;;;;;;;2.16;58.97;98204.79;227655;1242;138505;-61
2022/11/18 23:29:19;;;;;;;15.20;9.30;;;;;;;2.17;58.89;98203.83;226587;1236;139175;-61
2022/11/18 23:34:22;;;;;;;14.50;9.10;;;;;;;2.16;58.25;98208.42;226490;1252;139054;-64
2022/11/18 23:39:26;;;;;;;14.40;9.60;;;;;;;2.17;58.52;98211.69;226769;1245;138305;-64
2022/11/18 23:44:44;;;;;;;13.90;8.70;;;;;;;2.17;58.69;98211.00;227744;1233;138837;-62
2022/11/18 23:49:47;;;;;;;12.90;8.60;;;;;;;2.15;58.86;98216.52;226652;1241;138708;-61
2022/11/18 23:54:51;;;;;;;12.10;8.00;;;;;;;2.14;58.65;98218.66;226593;1252;139130;-65
2022/11/18 23:59:54;;;;;;;12.20;8.50;;;;;;;2.15;58.35;98225.65;226759;1234;139389;-65
